Time;durP1;ratioP1;P1;durP2;ratioP2;P2;SDS_P1;SDS_P2;PMS_P1;PMS_P2;Temp;Humidity;BMP_temperature;BMP_pressure;BME280_temperature;BME280_humidity;BME280_pressure;Samples;Min_cycle;Max_cycle;Signal;HPM_P1;HPM_P2
2023/09/22 00:00:59;;;;;;;7.95;6.93;;;17.30;99.90;;;;;;5018915;28;20025;-85
2023/09/22 00:03:26;;;;;;;8.50;7.60;;;17.30;99.90;;;;;;5018611;28;20461;-85
2023/09/22 00:05:52;;;;;;;9.63;7.95;;;17.20;99.90;;;;;;5019094;28;20113;-85
2023/09/22 00:08:18;;;;;;;8.40;7.60;;;17.20;99.90;;;;;;5018665;28;20117;-85
2023/09/22 00:10:45;;;;;;;8.48;7.68;;;17.20;99.90;;;;;;5018807;28;20013;-85
2023/09/22 00:13:10;;;;;;;8.88;7.88;;;17.10;99.90;;;;;;5018377;28;20029;-85
2023/09/22 00:15:36;;;;;;;8.25;7.45;;;17.20;99.90;;;;;;5001775;28;20025;-85
2023/09/22 00:18:04;;;;;;;9.60;8.70;;;17.10;99.90;;;;;;5018083;28;20018;-85
2023/09/22 00:20:30;;;;;;;9.07;8.15;;;17.20;99.90;;;;;;5018458;28;20017;-85
2023/09/22 00:22:56;;;;;;;9.38;8.38;;;17.20;99.90;;;;;;5001973;28;20040;-84
2023/09/22 00:25:22;;;;;;;10.60;9.50;;;17.20;99.90;;;;;;5018356;28;20026;-84
2023/09/22 00:27:48;;;;;;;10.43;9.27;;;17.20;99.90;;;;;;5018651;28;20024;-84
2023/09/22 00:30:16;;;;;;;11.55;9.43;;;17.20;99.90;;;;;;5018275;28;20018;-85
2023/09/22 00:32:42;;;;;;;11.38;10.30;;;17.10;99.90;;;;;;5002028;28;20494;-84
2023/09/22 00:35:10;;;;;;;12.82;10.68;;;17.10;99.90;;;;;;5002381;28;20022;-84
2023/09/22 00:37:36;;;;;;;11.70;10.55;;;17.10;99.90;;;;;;5047476;28;20005;-85
2023/09/22 00:40:02;;;;;;;12.55;11.27;;;17.10;99.90;;;;;;5042659;28;20044;-84
2023/09/22 00:42:28;;;;;;;12.40;11.20;;;17.10;99.90;;;;;;5026505;28;20021;-84
2023/09/22 00:44:53;;;;;;;11.82;10.63;;;17.10;99.90;;;;;;5059883;28;20028;-84
2023/09/22 00:47:20;;;;;;;13.07;11.73;;;17.10;99.90;;;;;;5042582;28;20029;-84
2023/09/22 00:49:48;;;;;;;14.18;12.70;;;17.20;99.90;;;;;;5006429;28;20033;-85
2023/09/22 00:52:14;;;;;;;14.27;12.88;;;17.10;99.90;;;;;;5019141;28;20033;-84
2023/09/22 00:54:41;;;;;;;13.77;12.38;;;17.10;99.90;;;;;;5002232;28;20057;-84
2023/09/22 00:57:07;;;;;;;14.15;12.55;;;17.10;99.90;;;;;;5018230;28;20029;-84
2023/09/22 00:59:33;;;;;;;13.52;12.18;;;17.10;99.90;;;;;;5001994;28;20017;-84
2023/09/22 01:02:00;;;;;;;14.43;12.93;;;17.10;99.90;;;;;;5035746;28;20108;-84
2023/09/22 01:04:26;;;;;;;15.05;13.55;;;17.10;99.90;;;;;;5035646;28;20037;-84
2023/09/22 01:06:52;;;;;;;15.05;13.55;;;17.10;99.90;;;;;;5035679;28;20480;-84
2023/09/22 01:09:17;;;;;;;14.52;13.02;;;17.10;99.90;;;;;;5017763;28;20116;-84
2023/09/22 01:11:44;;;;;;;14.23;12.80;;;17.10;99.90;;;;;;5017613;28;20021;-85
2023/09/22 01:14:13;;;;;;;15.15;13.55;;;17.10;99.90;;;;;;5035242;28;20022;-85
2023/09/22 01:16:39;;;;;;;14.38;12.85;;;17.00;99.90;;;;;;5035275;28;20080;-84
2023/09/22 01:19:16;;;;;;;14.40;12.90;;;17.00;99.90;;;;;;5017107;28;20029;-84
2023/09/22 01:21:42;;;;;;;13.40;11.82;;;17.00;99.90;;;;;;5018331;28;20033;-84
2023/09/22 01:24:12;;;;;;;14.93;12.43;;;16.90;99.90;;;;;;5014475;28;20053;-84
2023/09/22 01:26:38;;;;;;;14.05;12.55;;;16.90;99.90;;;;;;5014597;28;20021;-84
2023/09/22 01:29:04;;;;;;;15.55;13.77;;;16.90;99.90;;;;;;5014356;28;20466;-84
2023/09/22 01:31:30;;;;;;;15.65;14.05;;;16.90;99.90;;;;;;5014510;28;20083;-85
2023/09/22 01:33:56;;;;;;;13.50;12.13;;;16.90;99.90;;;;;;5015820;28;20117;-84
2023/09/22 01:36:22;;;;;;;14.73;13.23;;;16.80;99.90;;;;;;5016069;28;20022;-85
2023/09/22 01:38:49;;;;;;;14.55;12.98;;;16.80;99.90;;;;;;5014081;28;20029;-85
2023/09/22 01:41:15;;;;;;;14.32;12.45;;;16.80;99.90;;;;;;5014185;28;20034;-85
2023/09/22 01:43:41;;;;;;;12.85;11.45;;;16.80;99.90;;;;;;5013564;28;20026;-83
2023/09/22 01:46:07;;;;;;;12.00;10.75;;;16.80;99.90;;;;;;4997495;28;20109;-84
2023/09/22 01:48:33;;;;;;;12.57;10.25;;;16.70;99.90;;;;;;5013600;28;20057;-84
2023/09/22 01:51:02;;;;;;;10.40;9.30;;;16.70;99.90;;;;;;5013790;28;20026;-83
2023/09/22 01:53:28;;;;;;;11.48;9.43;;;16.70;99.90;;;;;;5014880;28;20029;-84
2023/09/22 01:55:55;;;;;;;10.80;9.30;;;16.60;99.90;;;;;;5013511;28;20355;-84
2023/09/22 01:58:23;;;;;;;10.30;9.02;;;16.60;99.90;;;;;;5013466;28;20014;-84
2023/09/22 02:00:49;;;;;;;10.18;8.65;;;16.60;99.90;;;;;;5013821;28;20083;-84
2023/09/22 02:03:15;;;;;;;9.88;8.88;;;16.60;99.90;;;;;;5013516;28;20406;-84
2023/09/22 02:05:41;;;;;;;10.25;8.50;;;16.50;99.90;;;;;;5013436;28;20022;-83
2023/09/22 02:08:08;;;;;;;10.23;9.20;;;16.50;99.90;;;;;;5013124;28;20080;-84
2023/09/22 02:10:34;;;;;;;12.60;8.80;;;16.50;99.90;;;;;;5013431;28;20021;-84
2023/09/22 02:13:00;;;;;;;10.95;8.15;;;16.40;99.90;;;;;;4997156;28;20029;-84
2023/09/22 02:15:25;;;;;;;16.63;8.85;;;16.30;99.90;;;;;;4996818;28;20029;-83
2023/09/22 02:17:51;;;;;;;10.00;8.70;;;16.30;99.90;;;;;;5013825;28;20018;-84
2023/09/22 02:20:22;;;;;;;10.05;7.80;;;16.30;99.90;;;;;;5013561;28;20071;-83
2023/09/22 02:22:49;;;;;;;8.98;8.07;;;16.20;99.90;;;;;;5014171;28;20131;-84
2023/09/22 02:25:15;;;;;;;8.90;8.00;;;16.20;99.90;;;;;;5014738;28;20081;-84
2023/09/22 02:27:41;;;;;;;8.75;7.45;;;16.20;99.90;;;;;;5037445;28;20394;-83
2023/09/22 02:30:10;;;;;;;10.30;7.70;;;16.10;99.90;;;;;;5038030;28;20022;-84
2023/09/22 02:32:38;;;;;;;8.25;7.45;;;16.10;99.90;;;;;;5021891;28;20093;-85
2023/09/22 02:35:04;;;;;;;9.88;7.97;;;16.10;99.90;;;;;;5031625;28;20021;-84
2023/09/22 02:37:30;;;;;;;11.60;7.35;;;16.00;99.90;;;;;;5014907;28;20088;-83
2023/09/22 02:39:56;;;;;;;10.48;8.23;;;16.00;99.90;;;;;;5013064;28;20025;-84
2023/09/22 02:42:22;;;;;;;8.55;7.28;;;16.00;99.90;;;;;;4997234;28;20026;-85
2023/09/22 02:44:47;;;;;;;9.48;7.78;;;16.00;99.90;;;;;;5014292;28;20022;-84
2023/09/22 02:47:14;;;;;;;8.30;6.80;;;16.00;99.90;;;;;;4996479;28;20025;-84
2023/09/22 02:49:40;;;;;;;8.98;7.40;;;16.00;99.90;;;;;;5014188;28;20018;-84
2023/09/22 02:52:05;;;;;;;9.23;6.70;;;15.90;99.90;;;;;;5013237;28;20090;-84
2023/09/22 02:54:31;;;;;;;7.70;5.88;;;15.90;99.90;;;;;;5012908;28;20354;-84
2023/09/22 02:56:57;;;;;;;8.43;6.38;;;15.90;99.90;;;;;;5014167;28;20022;-84
2023/09/22 02:59:25;;;;;;;8.13;6.63;;;15.90;99.90;;;;;;5014169;28;20068;-84
2023/09/22 03:01:52;;;;;;;7.85;6.78;;;15.90;99.90;;;;;;5012804;28;20049;-84
2023/09/22 03:04:17;;;;;;;7.43;6.50;;;15.80;99.90;;;;;;5013093;28;20100;-84
2023/09/22 03:06:43;;;;;;;7.93;7.13;;;15.80;99.90;;;;;;5014297;28;20490;-84
2023/09/22 03:09:09;;;;;;;8.55;6.78;;;15.80;99.90;;;;;;4996737;28;20369;-84
2023/09/22 03:11:36;;;;;;;6.75;6.05;;;15.80;99.90;;;;;;5013827;28;20029;-84
2023/09/22 03:14:03;;;;;;;7.38;5.68;;;15.80;99.90;;;;;;5012809;28;20041;-85
2023/09/22 03:16:29;;;;;;;8.32;6.47;;;15.70;99.90;;;;;;4996525;28;20432;-84
2023/09/22 03:18:54;;;;;;;8.50;6.93;;;15.70;99.90;;;;;;5012422;28;20018;-84
2023/09/22 03:21:22;;;;;;;8.52;6.45;;;15.70;99.90;;;;;;4996156;28;20516;-84
2023/09/22 03:23:52;;;;;;;9.27;6.57;;;15.70;99.90;;;;;;5012237;28;20046;-84
2023/09/22 03:26:19;;;;;;;9.13;7.10;;;15.70;99.90;;;;;;4996033;28;20025;-84
2023/09/22 03:28:48;;;;;;;9.73;7.47;;;15.70;99.90;;;;;;5013503;28;20029;-84
2023/09/22 03:31:15;;;;;;;12.32;7.63;;;15.70;99.90;;;;;;5013561;28;20026;-84
2023/09/22 03:33:40;;;;;;;10.80;7.85;;;15.70;99.90;;;;;;5012475;28;20033;-84
2023/09/22 03:36:12;;;;;;;12.23;7.93;;;15.70;99.90;;;;;;4980020;28;20022;-83
2023/09/22 03:38:42;;;;;;;10.25;7.32;;;15.70;99.90;;;;;;4996717;28;20018;-83
2023/09/22 03:41:08;;;;;;;10.07;8.02;;;15.70;99.90;;;;;;4996022;28;20018;-84
2023/09/22 03:43:34;;;;;;;9.30;7.50;;;15.70;99.90;;;;;;5011869;28;20021;-84
2023/09/22 03:46:00;;;;;;;9.68;7.15;;;15.60;99.90;;;;;;5012278;28;20041;-84
2023/09/22 03:48:26;;;;;;;10.90;7.55;;;15.70;99.90;;;;;;5012304;28;20022;-84
2023/09/22 03:50:53;;;;;;;8.85;7.18;;;15.70;99.90;;;;;;4997197;28;20121;-84
2023/09/22 03:53:19;;;;;;;10.25;7.10;;;15.70;99.90;;;;;;4999933;28;20044;-84
2023/09/22 03:55:45;;;;;;;12.05;7.32;;;15.70;99.90;;;;;;5017033;28;20026;-84
2023/09/22 03:58:14;;;;;;;9.57;6.80;;;15.70;99.90;;;;;;5017276;28;20128;-83
2023/09/22 04:00:40;;;;;;;10.40;7.75;;;15.80;99.90;;;;;;5016007;28;20018;-84
2023/09/22 04:03:09;;;;;;;8.77;6.50;;;15.80;99.90;;;;;;5000603;28;20422;-84
2023/09/22 04:05:38;;;;;;;10.75;7.78;;;15.80;99.90;;;;;;5019131;28;20120;-85
2023/09/22 04:08:05;;;;;;;11.40;7.65;;;15.80;99.90;;;;;;5029976;28;20078;-84
2023/09/22 04:10:33;;;;;;;10.25;7.07;;;15.80;99.90;;;;;;5040705;28;20029;-83
2023/09/22 04:12:58;;;;;;;9.13;7.22;;;15.80;99.90;;;;;;5024138;28;20034;-84
2023/09/22 04:15:24;;;;;;;8.13;6.43;;;15.80;99.90;;;;;;5036367;28;20053;-84
2023/09/22 04:17:51;;;;;;;8.80;6.70;;;15.80;99.90;;;;;;5027976;28;20021;-84
2023/09/22 04:20:27;;;;;;;9.25;7.15;;;15.80;99.90;;;;;;5003910;28;20084;-84
2023/09/22 04:22:53;;;;;;;9.98;6.05;;;15.80;99.90;;;;;;5016636;28;20029;-84
2023/09/22 04:25:42;;;;;;;8.20;6.10;;;15.90;99.90;;;;;;5015565;28;20466;-84
2023/09/22 04:28:08;;;;;;;9.48;6.05;;;15.90;99.90;;;;;;5015471;28;20033;-84
2023/09/22 04:30:37;;;;;;;8.98;5.72;;;15.90;99.90;;;;;;5015683;28;20017;-84
2023/09/22 04:33:04;;;;;;;10.07;6.40;;;15.90;99.90;;;;;;5016555;28;20022;-84
2023/09/22 04:35:32;;;;;;;8.30;6.18;;;16.00;99.90;;;;;;5015254;28;20014;-84
2023/09/22 04:37:59;;;;;;;8.30;5.68;;;15.90;99.90;;;;;;5016271;28;20025;-83
2023/09/22 04:40:29;;;;;;;6.35;4.75;;;15.90;99.90;;;;;;5015730;28;20025;-84
2023/09/22 04:42:55;;;;;;;7.13;4.63;;;16.00;99.90;;;;;;5015460;28;20466;-84
2023/09/22 04:45:23;;;;;;;7.22;4.72;;;16.00;99.90;;;;;;4998637;28;20105;-84
2023/09/22 04:47:52;;;;;;;6.60;5.15;;;16.10;99.90;;;;;;5015529;28;20361;-84
2023/09/22 04:50:18;;;;;;;7.50;4.40;;;16.00;99.90;;;;;;5015472;28;20426;-85
2023/09/22 04:52:45;;;;;;;5.97;4.55;;;16.10;99.90;;;;;;5014874;28;20136;-84
2023/09/22 04:55:11;;;;;;;6.60;4.57;;;16.10;99.90;;;;;;5014801;28;20080;-84
2023/09/22 04:57:37;;;;;;;6.30;4.40;;;16.10;99.90;;;;;;5014585;28;20018;-84
2023/09/22 05:00:13;;;;;;;8.75;4.45;;;16.10;99.90;;;;;;5016244;28;20022;-83
2023/09/22 05:02:41;;;;;;;5.75;4.38;;;16.10;99.90;;;;;;4999591;28;20080;-83
2023/09/22 05:05:07;;;;;;;5.30;3.80;;;16.10;99.90;;;;;;5015025;28;20028;-84
2023/09/22 05:07:33;;;;;;;6.70;3.80;;;16.10;99.90;;;;;;4982236;28;20060;-84
2023/09/22 05:09:59;;;;;;;7.70;5.00;;;16.10;99.90;;;;;;4998295;28;20034;-84
2023/09/22 05:12:25;;;;;;;6.93;4.30;;;16.10;99.90;;;;;;5015621;28;20026;-84
2023/09/22 05:14:52;;;;;;;6.82;4.05;;;16.10;99.90;;;;;;5013330;28;20029;-83
2023/09/22 05:17:18;;;;;;;4.65;3.70;;;16.10;99.90;;;;;;5014281;28;20103;-83
2023/09/22 05:19:44;;;;;;;5.35;3.55;;;16.10;99.90;;;;;;4997729;28;20026;-84
2023/09/22 05:22:13;;;;;;;7.88;4.20;;;16.10;99.90;;;;;;4981429;28;20037;-84
2023/09/22 05:24:38;;;;;;;7.03;3.90;;;16.10;99.90;;;;;;4997492;28;20049;-83
2023/09/22 05:27:05;;;;;;;4.75;3.33;;;16.20;99.90;;;;;;4997807;28;20037;-84
2023/09/22 05:29:30;;;;;;;5.22;3.78;;;16.10;99.90;;;;;;5013964;28;20037;-84
2023/09/22 05:31:56;;;;;;;5.72;4.07;;;16.10;99.90;;;;;;5013908;28;20366;-84
2023/09/22 05:34:22;;;;;;;5.70;3.83;;;16.10;99.90;;;;;;5014111;28;20458;-84
2023/09/22 05:37:00;;;;;;;5.65;3.50;;;16.10;99.90;;;;;;5014814;28;20093;-84
2023/09/22 05:39:26;;;;;;;6.90;4.15;;;16.10;99.90;;;;;;4998825;28;20058;-84
2023/09/22 05:41:52;;;;;;;8.40;3.92;;;16.00;99.90;;;;;;4997491;28;20033;-84
2023/09/22 05:44:18;;;;;;;4.88;3.58;;;16.00;99.90;;;;;;4997947;28;20033;-84
2023/09/22 05:46:47;;;;;;;5.13;3.50;;;16.00;99.90;;;;;;4997263;28;20080;-84
2023/09/22 05:49:14;;;;;;;8.10;3.45;;;16.00;99.90;;;;;;5014196;28;20414;-84
2023/09/22 05:51:43;;;;;;;6.05;3.97;;;16.00;99.90;;;;;;5017878;28;20032;-84
2023/09/22 05:54:09;;;;;;;4.97;3.40;;;16.00;99.90;;;;;;5035461;28;20037;-84
2023/09/22 05:56:35;;;;;;;5.40;3.63;;;15.90;99.90;;;;;;5038493;28;20014;-84
2023/09/22 05:59:03;;;;;;;4.25;3.13;;;15.90;99.90;;;;;;5005529;28;20010;-84
2023/09/22 06:01:37;;;;;;;5.15;3.40;;;15.90;99.90;;;;;;5037919;28;20024;-84
2023/09/22 06:04:05;;;;;;;6.50;3.00;;;15.90;99.90;;;;;;5022142;28;20030;-84
2023/09/22 06:06:32;;;;;;;4.80;2.83;;;15.90;99.90;;;;;;5034785;28;20022;-84
2023/09/22 06:08:59;;;;;;;4.25;3.10;;;15.90;99.90;;;;;;5013637;28;20018;-84
2023/09/22 06:11:25;;;;;;;4.82;3.25;;;15.80;99.90;;;;;;5014497;28;20022;-83
2023/09/22 06:13:51;;;;;;;4.68;3.25;;;15.80;99.90;;;;;;5013168;28;20041;-84
2023/09/22 06:16:17;;;;;;;4.00;2.45;;;15.80;99.90;;;;;;5014552;28;20446;-84
2023/09/22 06:18:43;;;;;;;3.03;2.65;;;15.80;99.90;;;;;;5012842;28;20021;-84
2023/09/22 06:21:10;;;;;;;5.88;2.85;;;15.90;99.90;;;;;;5013007;28;20604;-84
2023/09/22 06:23:36;;;;;;;4.32;2.60;;;15.80;99.90;;;;;;5018239;28;20041;-83
2023/09/22 06:26:05;;;;;;;3.75;2.28;;;15.80;99.90;;;;;;5015955;28;20036;-84
2023/09/22 06:28:32;;;;;;;3.42;2.25;;;15.90;99.90;;;;;;5034044;28;20017;-83
2023/09/22 06:31:03;;;;;;;3.85;2.30;;;15.90;99.90;;;;;;4999643;28;20075;-85
2023/09/22 06:33:30;;;;;;;6.80;2.15;;;15.90;99.90;;;;;;4999700;28;20033;-84
2023/09/22 06:35:57;;;;;;;2.88;2.10;;;15.90;99.90;;;;;;5015604;28;20032;-84
2023/09/22 06:38:25;;;;;;;4.13;2.28;;;15.90;99.90;;;;;;5034227;28;20051;-84
2023/09/22 06:40:55;;;;;;;4.80;2.00;;;15.90;99.90;;;;;;5033902;28;20488;-84
2023/09/22 06:43:23;;;;;;;5.70;1.88;;;15.90;99.90;;;;;;5000279;28;20422;-84
2023/09/22 06:45:53;;;;;;;3.22;1.95;;;15.90;99.90;;;;;;5033574;28;20436;-83
2023/09/22 06:48:25;;;;;;;3.17;2.00;;;15.90;99.90;;;;;;5033332;28;20496;-83
2023/09/22 06:50:52;;;;;;;3.72;1.70;;;15.90;99.90;;;;;;5015715;28;20013;-83
2023/09/22 06:53:19;;;;;;;3.55;2.10;;;15.90;99.90;;;;;;5032902;28;20037;-84
2023/09/22 06:55:44;;;;;;;4.25;1.95;;;15.90;99.90;;;;;;5015747;28;20056;-83
2023/09/22 06:58:10;;;;;;;2.92;1.63;;;15.90;99.90;;;;;;4998633;28;20053;-85
2023/09/22 07:00:36;;;;;;;3.47;2.03;;;15.90;99.90;;;;;;4998939;28;20026;-83
2023/09/22 07:03:01;;;;;;;4.03;1.83;;;15.90;99.90;;;;;;5015760;28;20083;-84
2023/09/22 07:05:27;;;;;;;3.22;1.80;;;15.90;99.90;;;;;;5015946;28;20442;-84
2023/09/22 07:07:55;;;;;;;2.15;1.50;;;15.90;99.90;;;;;;5015524;28;20052;-84
2023/09/22 07:10:23;;;;;;;2.55;1.65;;;16.00;99.90;;;;;;5033375;28;20020;-84
2023/09/22 07:12:49;;;;;;;3.22;1.42;;;16.00;99.90;;;;;;5015766;28;20045;-84
2023/09/22 07:15:17;;;;;;;5.32;1.70;;;16.00;99.90;;;;;;4998934;28;20033;-84
2023/09/22 07:17:43;;;;;;;4.07;1.70;;;16.10;99.90;;;;;;5015885;28;20022;-84
2023/09/22 07:20:14;;;;;;;3.33;1.50;;;16.20;99.90;;;;;;5015651;28;20040;-84
2023/09/22 07:22:43;;;;;;;2.75;1.38;;;16.20;99.90;;;;;;5000083;28;20117;-84
2023/09/22 07:25:09;;;;;;;2.67;1.60;;;16.20;99.90;;;;;;5015461;28;20076;-84
2023/09/22 07:27:39;;;;;;;3.20;1.35;;;16.30;99.90;;;;;;5019923;28;20079;-84
2023/09/22 07:30:09;;;;;;;3.20;1.57;;;16.30;99.90;;;;;;5019820;28;20025;-84
2023/09/22 07:32:37;;;;;;;2.88;1.25;;;16.30;99.90;;;;;;5019573;28;20335;-84
2023/09/22 07:35:04;;;;;;;2.80;1.45;;;16.40;99.90;;;;;;5019515;28;20083;-84
2023/09/22 07:37:30;;;;;;;2.22;1.30;;;16.40;99.90;;;;;;5003642;28;20024;-84
2023/09/22 07:39:56;;;;;;;3.35;1.25;;;16.50;99.90;;;;;;5020071;28;20013;-84
2023/09/22 07:42:22;;;;;;;4.93;1.45;;;16.50;99.90;;;;;;5048030;28;20014;-84
2023/09/22 07:44:48;;;;;;;2.72;1.38;;;16.60;99.90;;;;;;5010476;28;20081;-84
2023/09/22 07:47:14;;;;;;;1.90;1.10;;;16.60;99.90;;;;;;5025910;28;20036;-84
2023/09/22 07:49:43;;;;;;;1.73;1.20;;;16.60;99.90;;;;;;5030903;28;20500;-84
2023/09/22 07:52:10;;;;;;;1.92;1.30;;;16.70;99.90;;;;;;5018831;28;20021;-84
2023/09/22 07:54:36;;;;;;;2.97;1.30;;;16.70;99.90;;;;;;5019367;28;20084;-84
2023/09/22 07:57:02;;;;;;;1.10;0.98;;;16.70;99.90;;;;;;5018953;28;20056;-84
2023/09/22 07:59:31;;;;;;;1.42;0.85;;;16.70;99.90;;;;;;5019084;28;20029;-84
2023/09/22 08:02:03;;;;;;;2.13;1.08;;;16.70;99.90;;;;;;5036983;28;20033;-84
2023/09/22 08:04:29;;;;;;;1.77;0.95;;;16.70;99.90;;;;;;5003530;28;20029;-83
2023/09/22 08:06:59;;;;;;;3.25;1.25;;;16.80;99.90;;;;;;5036333;28;20055;-83
2023/09/22 08:09:25;;;;;;;1.60;0.90;;;16.80;99.90;;;;;;5002711;28;20188;-84
2023/09/22 08:11:54;;;;;;;1.98;1.15;;;16.80;99.90;;;;;;4986240;28;20061;-84
2023/09/22 08:14:21;;;;;;;1.60;1.10;;;16.90;99.90;;;;;;5018188;28;20034;-84
2023/09/22 08:16:48;;;;;;;3.47;1.10;;;16.80;99.90;;;;;;5036859;28;20022;-84
2023/09/22 08:19:17;;;;;;;2.75;1.17;;;16.90;99.90;;;;;;5018434;28;20024;-85
2023/09/22 08:21:45;;;;;;;1.70;1.00;;;16.80;99.90;;;;;;5002442;28;20029;-84
2023/09/22 08:24:11;;;;;;;3.20;1.20;;;16.90;99.90;;;;;;5014999;28;20038;-83
2023/09/22 08:26:36;;;;;;;1.55;0.90;;;16.90;99.90;;;;;;5015961;28;20022;-85
2023/09/22 08:29:05;;;;;;;2.60;0.90;;;16.90;99.90;;;;;;4999091;28;20144;-83
2023/09/22 08:31:31;;;;;;;2.53;1.02;;;16.90;99.90;;;;;;5000140;28;20033;-83
2023/09/22 08:33:56;;;;;;;1.83;1.08;;;17.00;99.90;;;;;;4983041;28;20033;-83
2023/09/22 08:36:22;;;;;;;2.58;0.82;;;17.00;99.90;;;;;;4998374;28;20450;-84
2023/09/22 08:38:48;;;;;;;1.52;0.93;;;17.10;99.90;;;;;;4997769;28;20469;-83
2023/09/22 08:41:14;;;;;;;1.73;0.90;;;17.10;99.90;;;;;;4998746;28;20018;-83
2023/09/22 08:43:40;;;;;;;2.15;0.77;;;17.20;99.90;;;;;;4998791;28;20120;-83
2023/09/22 08:46:06;;;;;;;1.75;0.65;;;17.20;99.90;;;;;;5014953;28;20520;-83
2023/09/22 08:48:32;;;;;;;2.03;1.00;;;17.20;99.90;;;;;;5014739;28;20022;-84
2023/09/22 08:50:58;;;;;;;1.05;0.68;;;17.20;99.90;;;;;;4998551;28;20032;-84
2023/09/22 08:53:23;;;;;;;1.65;0.60;;;17.30;99.90;;;;;;4998307;28;20058;-83
2023/09/22 08:55:50;;;;;;;3.45;0.80;;;17.30;99.90;;;;;;4998342;28;20033;-85
2023/09/22 08:58:18;;;;;;;1.48;0.70;;;17.40;99.90;;;;;;5014489;28;20056;-84
2023/09/22 09:00:48;;;;;;;1.27;0.60;;;17.50;99.90;;;;;;4998600;28;20100;-83
2023/09/22 09:03:14;;;;;;;1.10;0.60;;;17.50;99.90;;;;;;5014467;28;20033;-84
2023/09/22 09:05:40;;;;;;;1.60;0.63;;;17.50;99.90;;;;;;5014751;28;20026;-84
2023/09/22 09:08:22;;;;;;;1.50;0.70;;;17.50;99.90;;;;;;5014717;28;20048;-84
2023/09/22 09:10:48;;;;;;;2.05;0.70;;;17.50;99.90;;;;;;5014764;28;20030;-84
2023/09/22 09:13:29;;;;;;;1.00;0.60;;;17.40;99.90;;;;;;5014419;28;20029;-84
2023/09/22 09:15:55;;;;;;;2.20;0.70;;;17.40;99.80;;;;;;5014824;28;20026;-84
2023/09/22 09:18:23;;;;;;;0.90;0.60;;;17.40;99.70;;;;;;5014750;28;20021;-83
2023/09/22 09:21:14;;;;;;;1.45;0.70;;;17.30;99.70;;;;;;4982649;28;20030;-84
2023/09/22 09:23:54;;;;;;;1.23;0.57;;;17.30;99.60;;;;;;5016815;28;20079;-84
2023/09/22 09:26:31;;;;;;;2.58;0.60;;;17.30;99.60;;;;;;5034547;28;20032;-84
2023/09/22 09:28:58;;;;;;;0.88;0.50;;;17.30;99.60;;;;;;5025943;28;20051;-84
2023/09/22 09:31:47;;;;;;;2.10;0.70;;;17.30;99.50;;;;;;5041140;28;20239;-84
2023/09/22 09:34:14;;;;;;;1.52;0.50;;;17.30;99.50;;;;;;5041785;28;20029;-85
2023/09/22 09:36:40;;;;;;;2.97;0.40;;;17.30;99.40;;;;;;5018613;28;20116;-83
2023/09/22 09:39:11;;;;;;;0.70;0.40;;;17.30;99.30;;;;;;5001672;28;20049;-84
2023/09/22 09:41:45;;;;;;;2.47;0.70;;;17.30;99.20;;;;;;5017291;28;20357;-85
2023/09/22 09:44:12;;;;;;;3.08;0.60;;;17.20;99.20;;;;;;5017531;28;20025;-84
2023/09/22 09:46:42;;;;;;;1.63;0.47;;;17.20;99.00;;;;;;4984424;28;20396;-84
2023/09/22 09:49:10;;;;;;;1.10;0.63;;;17.20;99.10;;;;;;5016675;28;20022;-84
2023/09/22 09:51:40;;;;;;;0.82;0.43;;;17.20;99.10;;;;;;5034221;28;20100;-83
2023/09/22 09:54:08;;;;;;;1.17;0.43;;;17.20;99.00;;;;;;5034256;28;20068;-84
2023/09/22 09:56:41;;;;;;;1.95;0.65;;;17.20;99.00;;;;;;5016439;28;20390;-84
2023/09/22 09:59:11;;;;;;;1.85;0.50;;;17.30;98.90;;;;;;5016781;28;20021;-83
2023/09/22 10:01:38;;;;;;;1.85;0.75;;;17.30;98.90;;;;;;5016487;28;20024;-84
2023/09/22 10:04:06;;;;;;;1.48;0.75;;;17.40;99.00;;;;;;5000111;28;20383;-84
2023/09/22 10:06:32;;;;;;;2.05;0.60;;;17.50;99.00;;;;;;5000224;28;20021;-85
2023/09/22 10:08:58;;;;;;;1.42;0.50;;;17.60;99.10;;;;;;5016544;28;20056;-84
2023/09/22 10:11:24;;;;;;;1.45;0.47;;;17.60;99.10;;;;;;4983820;28;20052;-85
2023/09/22 10:13:50;;;;;;;1.45;0.73;;;17.70;99.00;;;;;;5000210;28;20425;-84
2023/09/22 10:16:29;;;;;;;1.02;0.65;;;17.80;99.00;;;;;;5016132;28;20029;-84
2023/09/22 10:18:59;;;;;;;1.83;0.70;;;17.90;99.10;;;;;;5016741;28;20369;-84
2023/09/22 10:21:33;;;;;;;1.85;0.43;;;18.00;98.80;;;;;;5000422;28;20124;-84
2023/09/22 10:24:24;;;;;;;1.55;0.65;;;18.00;98.60;;;;;;5034038;28;20041;-84
2023/09/22 10:26:56;;;;;;;0.95;0.50;;;18.00;98.30;;;;;;5016241;28;20025;-84
2023/09/22 10:29:37;;;;;;;0.73;0.45;;;18.00;98.30;;;;;;5033760;28;20100;-84
2023/09/22 10:32:18;;;;;;;1.67;0.70;;;18.00;98.20;;;;;;5015974;28;20119;-85
2023/09/22 10:34:47;;;;;;;1.33;0.60;;;18.00;98.20;;;;;;5016095;28;20021;-84
2023/09/22 10:37:15;;;;;;;0.85;0.60;;;18.00;98.20;;;;;;5015809;28;20393;-84
2023/09/22 10:39:58;;;;;;;1.60;0.52;;;18.10;98.20;;;;;;5015785;28;20018;-84
2023/09/22 10:42:26;;;;;;;1.02;0.60;;;18.00;98.00;;;;;;4999106;28;20466;-84
2023/09/22 10:45:01;;;;;;;2.03;0.70;;;18.00;98.00;;;;;;5033316;28;20013;-84
2023/09/22 10:47:43;;;;;;;1.13;0.73;;;18.00;98.00;;;;;;5015849;28;20365;-84
2023/09/22 10:50:21;;;;;;;1.38;0.85;;;18.10;98.10;;;;;;5015799;28;20026;-84
2023/09/22 10:53:02;;;;;;;1.45;0.60;;;18.10;98.00;;;;;;5015650;28;20057;-84
2023/09/22 10:55:45;;;;;;;3.15;0.80;;;18.10;97.90;;;;;;5015728;28;20466;-85
2023/09/22 10:58:20;;;;;;;0.98;0.60;;;18.10;97.90;;;;;;5033900;28;20071;-84
2023/09/22 11:01:01;;;;;;;1.40;0.57;;;18.20;97.90;;;;;;5014797;28;20017;-83
2023/09/22 11:03:27;;;;;;;0.82;0.60;;;18.20;97.90;;;;;;5015655;28;20075;-84
2023/09/22 11:06:03;;;;;;;2.03;0.55;;;18.30;97.90;;;;;;5015913;28;20040;-84
2023/09/22 11:08:29;;;;;;;1.98;0.60;;;18.40;98.00;;;;;;5033275;28;20079;-84
2023/09/22 11:10:59;;;;;;;2.08;0.60;;;18.50;98.00;;;;;;5016520;28;20034;-84
2023/09/22 11:13:24;;;;;;;1.33;0.50;;;18.50;97.90;;;;;;5004566;28;20034;-84
2023/09/22 11:15:59;;;;;;;1.90;0.50;;;18.60;97.80;;;;;;5023556;28;20075;-84
2023/09/22 11:18:25;;;;;;;1.48;0.55;;;18.60;97.60;;;;;;5040278;28;20021;-84
2023/09/22 11:20:58;;;;;;;2.30;0.73;;;18.60;97.50;;;;;;5057017;28;20010;-84
2023/09/22 11:23:26;;;;;;;0.90;0.50;;;18.70;97.30;;;;;;5040226;28;20026;-83
2023/09/22 11:25:59;;;;;;;0.63;0.50;;;18.70;97.20;;;;;;5025552;28;20437;-85
2023/09/22 11:28:28;;;;;;;1.73;0.82;;;18.70;97.10;;;;;;5016222;28;20026;-84
2023/09/22 11:30:53;;;;;;;1.52;0.57;;;18.70;96.90;;;;;;5016191;28;20369;-85
2023/09/22 11:33:19;;;;;;;0.93;0.52;;;18.60;96.70;;;;;;4983275;28;20033;-84
2023/09/22 11:35:47;;;;;;;2.03;0.57;;;18.70;96.70;;;;;;5015528;28;20200;-84
2023/09/22 11:38:27;;;;;;;1.00;0.50;;;18.60;96.60;;;;;;5033379;28;20021;-84
2023/09/22 11:41:12;;;;;;;1.08;0.40;;;18.60;96.60;;;;;;5015460;28;20479;-85
2023/09/22 11:43:38;;;;;;;2.15;0.80;;;18.60;96.40;;;;;;5014773;28;20029;-84
2023/09/22 11:46:27;;;;;;;0.60;0.50;;;18.60;96.40;;;;;;5032944;28;20014;-84
2023/09/22 11:49:05;;;;;;;0.77;0.50;;;18.70;96.40;;;;;;5015372;28;20033;-84
2023/09/22 11:51:43;;;;;;;2.35;0.40;;;18.70;96.40;;;;;;5015592;28;20018;-84
2023/09/22 11:54:10;;;;;;;1.95;0.65;;;18.70;96.30;;;;;;5033210;28;20493;-84
2023/09/22 11:56:36;;;;;;;1.08;0.50;;;18.80;96.30;;;;;;5015446;28;20408;-84
2023/09/22 11:59:08;;;;;;;1.20;0.50;;;18.80;96.20;;;;;;5015269;28;20022;-85
2023/09/22 12:01:34;;;;;;;1.02;0.50;;;18.90;96.10;;;;;;5015449;28;20511;-84
2023/09/22 12:04:00;;;;;;;1.67;0.70;;;18.90;96.10;;;;;;5015953;28;20074;-84
2023/09/22 12:06:26;;;;;;;0.68;0.50;;;18.90;96.10;;;;;;5015718;28;20112;-84
2023/09/22 12:08:52;;;;;;;1.63;0.50;;;18.90;96.20;;;;;;5015300;28;20469;-84
2023/09/22 12:11:18;;;;;;;1.23;0.50;;;19.00;96.30;;;;;;5015961;28;20029;-84
2023/09/22 12:13:46;;;;;;;0.82;0.52;;;18.90;96.30;;;;;;5018522;28;20030;-84
2023/09/22 12:16:12;;;;;;;0.95;0.63;;;19.00;96.20;;;;;;5018889;28;20022;-84
2023/09/22 12:18:38;;;;;;;1.52;0.60;;;19.00;96.10;;;;;;5018824;28;20021;-84
2023/09/22 12:21:04;;;;;;;0.65;0.32;;;19.00;96.10;;;;;;5002371;28;20022;-84
2023/09/22 12:23:29;;;;;;;1.23;0.55;;;19.00;96.00;;;;;;5002188;28;20040;-84
2023/09/22 12:25:55;;;;;;;0.60;0.50;;;19.10;96.00;;;;;;5018757;28;20382;-84
2023/09/22 12:28:21;;;;;;;1.35;0.77;;;19.10;96.10;;;;;;5002148;28;20029;-84
2023/09/22 12:30:46;;;;;;;1.08;0.60;;;19.20;96.20;;;;;;5018164;28;20017;-84
2023/09/22 12:33:12;;;;;;;1.13;0.50;;;19.30;96.20;;;;;;5002225;28;20039;-84
2023/09/22 12:35:38;;;;;;;2.15;0.57;;;19.40;96.20;;;;;;5018235;28;20056;-84
2023/09/22 12:38:06;;;;;;;1.13;0.60;;;19.50;96.20;;;;;;4985924;28;20017;-84
2023/09/22 12:40:32;;;;;;;1.58;0.75;;;19.60;96.00;;;;;;5018392;28;20125;-85
2023/09/22 12:43:00;;;;;;;1.17;0.52;;;19.70;96.10;;;;;;5001835;28;20505;-84
2023/09/22 12:45:26;;;;;;;0.77;0.50;;;19.70;96.10;;;;;;5018338;28;20017;-84
2023/09/22 12:47:52;;;;;;;0.95;0.60;;;19.80;96.10;;;;;;5018009;28;20024;-84